sensor_id;sensor_type;location;lat;lon;timestamp;temperature;humidity
9808;DHT22;4943;52.550;13.462;2023-04-21T00:00:07;13.40;99.90
9808;DHT22;4943;52.550;13.462;2023-04-21T00:02:36;13.30;99.90
9808;DHT22;4943;52.550;13.462;2023-04-21T00:05:07;13.30;99.90
9808;DHT22;4943;52.550;13.462;2023-04-21T00:07:38;13.30;99.90
9808;DHT22;4943;52.550;13.462;2023-04-21T00:10:07;13.30;99.90
9808;DHT22;4943;52.550;13.462;2023-04-21T00:12:35;13.30;99.90
9808;DHT22;4943;52.550;13.462;2023-04-21T00:15:05;13.30;99.90
9808;DHT22;4943;52.550;13.462;2023-04-21T00:17:33;13.20;99.90
9808;DHT22;4943;52.550;13.462;2023-04-21T00:20:01;13.20;99.90
9808;DHT22;4943;52.550;13.462;2023-04-21T00:22:30;13.20;99.90
9808;DHT22;4943;52.550;13.462;2023-04-21T00:25:00;13.20;99.90
9808;DHT22;4943;52.550;13.462;2023-04-21T00:27:28;13.20;99.90
9808;DHT22;4943;52.550;13.462;2023-04-21T00:29:56;13.20;99.90
9808;DHT22;4943;52.550;13.462;2023-04-21T00:32:24;13.20;99.90
9808;DHT22;4943;52.550;13.462;2023-04-21T00:34:53;13.20;99.90
9808;DHT22;4943;52.550;13.462;2023-04-21T00:37:21;13.10;99.90
9808;DHT22;4943;52.550;13.462;2023-04-21T00:39:50;13.10;99.90
9808;DHT22;4943;52.550;13.462;2023-04-21T00:42:19;13.10;99.90
9808;DHT22;4943;52.550;13.462;2023-04-21T00:44:47;13.10;99.90
9808;DHT22;4943;52.550;13.462;2023-04-21T00:47:15;13.00;99.90
9808;DHT22;4943;52.550;13.462;2023-04-21T00:49:44;13.00;99.90
9808;DHT22;4943;52.550;13.462;2023-04-21T00:52:13;12.90;99.90
9808;DHT22;4943;52.550;13.462;2023-04-21T00:54:42;12.90;99.90
9808;DHT22;4943;52.550;13.462;2023-04-21T00:57:11;12.90;99.90
9808;DHT22;4943;52.550;13.462;2023-04-21T00:59:40;12.90;99.90
9808;DHT22;4943;52.550;13.462;2023-04-21T01:02:09;12.90;99.90
9808;DHT22;4943;52.550;13.462;2023-04-21T01:04:37;12.90;99.90
9808;DHT22;4943;52.550;13.462;2023-04-21T01:07:06;12.80;99.90
9808;DHT22;4943;52.550;13.462;2023-04-21T01:09:36;12.80;99.90
9808;DHT22;4943;52.550;13.462;2023-04-21T01:12:05;12.80;99.90
9808;DHT22;4943;52.550;13.462;2023-04-21T01:14:34;12.80;99.90
9808;DHT22;4943;52.550;13.462;2023-04-21T01:17:04;12.70;99.90
9808;DHT22;4943;52.550;13.462;2023-04-21T01:19:36;12.70;99.90
9808;DHT22;4943;52.550;13.462;2023-04-21T01:22:08;12.70;99.90
9808;DHT22;4943;52.550;13.462;2023-04-21T01:24:38;12.70;99.90
9808;DHT22;4943;52.550;13.462;2023-04-21T01:27:11;12.70;99.90
9808;DHT22;4943;52.550;13.462;2023-04-21T01:29:40;12.70;99.90
9808;DHT22;4943;52.550;13.462;2023-04-21T01:32:11;12.60;99.90
9808;DHT22;4943;52.550;13.462;2023-04-21T01:34:40;12.60;99.90
9808;DHT22;4943;52.550;13.462;2023-04-21T01:37:10;12.60;99.90
9808;DHT22;4943;52.550;13.462;2023-04-21T01:39:39;12.60;99.90
9808;DHT22;4943;52.550;13.462;2023-04-21T01:42:08;12.60;99.90
9808;DHT22;4943;52.550;13.462;2023-04-21T01:44:36;12.60;99.90
9808;DHT22;4943;52.550;13.462;2023-04-21T01:47:05;12.50;99.90
9808;DHT22;4943;52.550;13.462;2023-04-21T01:49:33;12.50;99.90
9808;DHT22;4943;52.550;13.462;2023-04-21T01:52:03;12.50;99.90
9808;DHT22;4943;52.550;13.462;2023-04-21T01:54:33;12.50;99.90
9808;DHT22;4943;52.550;13.462;2023-04-21T01:57:02;12.50;99.90
9808;DHT22;4943;52.550;13.462;2023-04-21T01:59:30;12.50;99.90
9808;DHT22;4943;52.550;13.462;2023-04-21T02:01:58;12.50;99.90
9808;DHT22;4943;52.550;13.462;2023-04-21T02:04:26;12.50;99.90
9808;DHT22;4943;52.550;13.462;2023-04-21T02:06:54;12.40;99.90
9808;DHT22;4943;52.550;13.462;2023-04-21T02:09:23;12.40;99.90
9808;DHT22;4943;52.550;13.462;2023-04-21T02:11:54;12.40;99.90
9808;DHT22;4943;52.550;13.462;2023-04-21T02:14:23;12.40;99.90
9808;DHT22;4943;52.550;13.462;2023-04-21T02:16:51;12.30;99.90
9808;DHT22;4943;52.550;13.462;2023-04-21T02:19:21;12.30;99.90
9808;DHT22;4943;52.550;13.462;2023-04-21T02:21:50;12.30;99.90
9808;DHT22;4943;52.550;13.462;2023-04-21T02:24:18;12.30;99.90
9808;DHT22;4943;52.550;13.462;2023-04-21T02:26:46;12.30;99.90
9808;DHT22;4943;52.550;13.462;2023-04-21T02:29:15;12.20;99.90
9808;DHT22;4943;52.550;13.462;2023-04-21T02:31:43;12.20;99.90
9808;DHT22;4943;52.550;13.462;2023-04-21T02:34:28;12.20;99.90
9808;DHT22;4943;52.550;13.462;2023-04-21T02:36:57;12.20;99.90
9808;DHT22;4943;52.550;13.462;2023-04-21T02:39:25;12.20;99.90
9808;DHT22;4943;52.550;13.462;2023-04-21T02:41:53;12.20;99.90
9808;DHT22;4943;52.550;13.462;2023-04-21T02:44:23;12.20;99.90
9808;DHT22;4943;52.550;13.462;2023-04-21T02:46:51;12.20;99.90
9808;DHT22;4943;52.550;13.462;2023-04-21T02:49:20;12.20;99.90
9808;DHT22;4943;52.550;13.462;2023-04-21T02:51:48;12.20;99.90
9808;DHT22;4943;52.550;13.462;2023-04-21T02:54:16;12.20;99.90
9808;DHT22;4943;52.550;13.462;2023-04-21T02:56:44;12.10;99.90
9808;DHT22;4943;52.550;13.462;2023-04-21T02:59:12;12.10;99.90
9808;DHT22;4943;52.550;13.462;2023-04-21T03:01:43;12.10;99.90
9808;DHT22;4943;52.550;13.462;2023-04-21T03:04:13;12.20;99.90
9808;DHT22;4943;52.550;13.462;2023-04-21T03:06:42;12.10;99.90
9808;DHT22;4943;52.550;13.462;2023-04-21T03:09:10;12.10;99.90
9808;DHT22;4943;52.550;13.462;2023-04-21T03:11:38;12.10;99.90
9808;DHT22;4943;52.550;13.462;2023-04-21T03:14:06;12.10;99.90
9808;DHT22;4943;52.550;13.462;2023-04-21T03:16:34;12.10;99.90
9808;DHT22;4943;52.550;13.462;2023-04-21T03:19:06;12.10;99.90
9808;DHT22;4943;52.550;13.462;2023-04-21T03:21:36;12.00;99.90
9808;DHT22;4943;52.550;13.462;2023-04-21T03:24:05;12.00;99.90
9808;DHT22;4943;52.550;13.462;2023-04-21T03:26:34;12.00;99.90
9808;DHT22;4943;52.550;13.462;2023-04-21T03:29:02;12.00;99.90
9808;DHT22;4943;52.550;13.462;2023-04-21T03:31:30;12.00;99.90
9808;DHT22;4943;52.550;13.462;2023-04-21T03:33:58;12.00;99.90
9808;DHT22;4943;52.550;13.462;2023-04-21T03:36:27;11.90;99.90
9808;DHT22;4943;52.550;13.462;2023-04-21T03:38:58;11.90;99.90
9808;DHT22;4943;52.550;13.462;2023-04-21T03:41:44;11.90;99.90
9808;DHT22;4943;52.550;13.462;2023-04-21T03:44:12;11.90;99.90
9808;DHT22;4943;52.550;13.462;2023-04-21T03:46:40;11.90;99.90
9808;DHT22;4943;52.550;13.462;2023-04-21T03:49:09;11.90;99.90
9808;DHT22;4943;52.550;13.462;2023-04-21T03:51:38;11.80;99.90
9808;DHT22;4943;52.550;13.462;2023-04-21T03:54:08;11.80;99.90
9808;DHT22;4943;52.550;13.462;2023-04-21T03:56:36;11.80;99.90
9808;DHT22;4943;52.550;13.462;2023-04-21T03:59:04;11.80;99.90
9808;DHT22;4943;52.550;13.462;2023-04-21T04:01:33;11.80;99.90
9808;DHT22;4943;52.550;13.462;2023-04-21T04:04:01;11.80;99.90
9808;DHT22;4943;52.550;13.462;2023-04-21T04:06:29;11.80;99.90
9808;DHT22;4943;52.550;13.462;2023-04-21T04:09:00;11.70;99.90
9808;DHT22;4943;52.550;13.462;2023-04-21T04:11:30;11.80;99.90
9808;DHT22;4943;52.550;13.462;2023-04-21T04:13:58;11.70;99.90
9808;DHT22;4943;52.550;13.462;2023-04-21T04:16:26;11.70;99.90
9808;DHT22;4943;52.550;13.462;2023-04-21T04:18:55;11.70;99.90
9808;DHT22;4943;52.550;13.462;2023-04-21T04:21:23;11.70;99.90
9808;DHT22;4943;52.550;13.462;2023-04-21T04:23:51;11.70;99.90
9808;DHT22;4943;52.550;13.462;2023-04-21T04:26:21;11.80;99.90
9808;DHT22;4943;52.550;13.462;2023-04-21T04:28:50;11.80;99.90
9808;DHT22;4943;52.550;13.462;2023-04-21T04:31:19;11.80;99.90
9808;DHT22;4943;52.550;13.462;2023-04-21T04:33:47;11.80;99.90
9808;DHT22;4943;52.550;13.462;2023-04-21T04:36:15;11.80;99.90
9808;DHT22;4943;52.550;13.462;2023-04-21T04:38:43;11.80;99.90
9808;DHT22;4943;52.550;13.462;2023-04-21T04:41:11;11.70;99.90
9808;DHT22;4943;52.550;13.462;2023-04-21T04:43:41;11.80;99.90
9808;DHT22;4943;52.550;13.462;2023-04-21T04:46:09;11.80;99.90
9808;DHT22;4943;52.550;13.462;2023-04-21T04:48:39;11.80;99.90
9808;DHT22;4943;52.550;13.462;2023-04-21T04:51:07;11.80;99.90
9808;DHT22;4943;52.550;13.462;2023-04-21T04:53:35;11.90;99.90
9808;DHT22;4943;52.550;13.462;2023-04-21T04:56:03;11.90;99.90
9808;DHT22;4943;52.550;13.462;2023-04-21T04:58:31;12.00;99.90
9808;DHT22;4943;52.550;13.462;2023-04-21T05:01:10;12.00;99.90
9808;DHT22;4943;52.550;13.462;2023-04-21T05:03:38;12.00;99.90
9808;DHT22;4943;52.550;13.462;2023-04-21T05:06:07;12.00;99.90
9808;DHT22;4943;52.550;13.462;2023-04-21T05:08:35;12.00;99.90
9808;DHT22;4943;52.550;13.462;2023-04-21T05:11:04;12.00;99.90
9808;DHT22;4943;52.550;13.462;2023-04-21T05:13:32;12.00;99.90
9808;DHT22;4943;52.550;13.462;2023-04-21T05:16:03;12.10;99.90
9808;DHT22;4943;52.550;13.462;2023-04-21T05:18:31;12.10;99.90
9808;DHT22;4943;52.550;13.462;2023-04-21T05:20:59;12.10;99.90
9808;DHT22;4943;52.550;13.462;2023-04-21T05:23:27;12.10;99.90
9808;DHT22;4943;52.550;13.462;2023-04-21T05:25:55;12.20;99.90
9808;DHT22;4943;52.550;13.462;2023-04-21T05:28:23;12.20;99.90
9808;DHT22;4943;52.550;13.462;2023-04-21T05:30:51;12.20;99.90
9808;DHT22;4943;52.550;13.462;2023-04-21T05:33:21;12.20;99.90
9808;DHT22;4943;52.550;13.462;2023-04-21T05:35:49;12.30;99.90
9808;DHT22;4943;52.550;13.462;2023-04-21T05:38:17;12.30;99.90
9808;DHT22;4943;52.550;13.462;2023-04-21T05:40:52;12.30;99.90
9808;DHT22;4943;52.550;13.462;2023-04-21T05:43:21;12.40;99.90
9808;DHT22;4943;52.550;13.462;2023-04-21T05:45:49;12.40;99.90
9808;DHT22;4943;52.550;13.462;2023-04-21T05:48:21;12.40;99.90
9808;DHT22;4943;52.550;13.462;2023-04-21T05:50:50;12.50;99.90
9808;DHT22;4943;52.550;13.462;2023-04-21T05:53:18;12.50;99.90
9808;DHT22;4943;52.550;13.462;2023-04-21T05:55:46;12.50;99.90
9808;DHT22;4943;52.550;13.462;2023-04-21T05:58:14;12.60;99.90
9808;DHT22;4943;52.550;13.462;2023-04-21T06:00:42;12.60;99.90
9808;DHT22;4943;52.550;13.462;2023-04-21T06:03:14;12.70;99.90
9808;DHT22;4943;52.550;13.462;2023-04-21T06:05:44;12.70;99.90
9808;DHT22;4943;52.550;13.462;2023-04-21T06:08:13;12.80;99.90
9808;DHT22;4943;52.550;13.462;2023-04-21T06:10:41;12.80;99.90
9808;DHT22;4943;52.550;13.462;2023-04-21T06:13:09;12.80;99.90
9808;DHT22;4943;52.550;13.462;2023-04-21T06:15:37;12.90;99.90
9808;DHT22;4943;52.550;13.462;2023-04-21T06:18:05;12.90;99.90
9808;DHT22;4943;52.550;13.462;2023-04-21T06:20:33;12.90;99.90
9808;DHT22;4943;52.550;13.462;2023-04-21T06:23:03;13.00;99.90
9808;DHT22;4943;52.550;13.462;2023-04-21T06:25:31;13.10;99.90
9808;DHT22;4943;52.550;13.462;2023-04-21T06:27:59;13.10;99.90
9808;DHT22;4943;52.550;13.462;2023-04-21T06:30:27;13.10;99.90
9808;DHT22;4943;52.550;13.462;2023-04-21T06:32:55;13.20;99.90
9808;DHT22;4943;52.550;13.462;2023-04-21T06:35:24;13.30;99.90
9808;DHT22;4943;52.550;13.462;2023-04-21T06:37:52;13.30;99.90
9808;DHT22;4943;52.550;13.462;2023-04-21T06:40:21;13.40;99.90
9808;DHT22;4943;52.550;13.462;2023-04-21T06:42:49;13.40;99.90
9808;DHT22;4943;52.550;13.462;2023-04-21T06:45:17;13.50;99.90
9808;DHT22;4943;52.550;13.462;2023-04-21T06:47:45;13.60;99.90
9808;DHT22;4943;52.550;13.462;2023-04-21T06:50:14;13.70;99.90
9808;DHT22;4943;52.550;13.462;2023-04-21T06:52:42;13.80;99.90
9808;DHT22;4943;52.550;13.462;2023-04-21T06:55:10;13.80;99.90
9808;DHT22;4943;52.550;13.462;2023-04-21T06:57:40;13.80;99.90
9808;DHT22;4943;52.550;13.462;2023-04-21T07:00:09;13.90;99.90
9808;DHT22;4943;52.550;13.462;2023-04-21T07:02:37;13.90;99.90
9808;DHT22;4943;52.550;13.462;2023-04-21T07:05:06;14.00;99.90
9808;DHT22;4943;52.550;13.462;2023-04-21T07:07:34;13.90;99.90
9808;DHT22;4943;52.550;13.462;2023-04-21T07:10:02;14.00;99.90
9808;DHT22;4943;52.550;13.462;2023-04-21T07:12:30;14.00;99.90
9808;DHT22;4943;52.550;13.462;2023-04-21T07:15:00;14.00;99.90
9808;DHT22;4943;52.550;13.462;2023-04-21T07:17:28;14.00;99.90
9808;DHT22;4943;52.550;13.462;2023-04-21T07:19:57;14.00;99.90
9808;DHT22;4943;52.550;13.462;2023-04-21T07:22:26;14.00;99.90
9808;DHT22;4943;52.550;13.462;2023-04-21T07:24:54;14.10;99.90
9808;DHT22;4943;52.550;13.462;2023-04-21T07:27:22;14.10;99.90
9808;DHT22;4943;52.550;13.462;2023-04-21T07:29:50;14.20;99.90
9808;DHT22;4943;52.550;13.462;2023-04-21T07:32:19;14.30;99.90
9808;DHT22;4943;52.550;13.462;2023-04-21T07:34:48;14.40;99.90
9808;DHT22;4943;52.550;13.462;2023-04-21T07:37:16;14.40;99.90
9808;DHT22;4943;52.550;13.462;2023-04-21T07:39:44;14.50;99.90
9808;DHT22;4943;52.550;13.462;2023-04-21T07:42:13;14.50;99.90
9808;DHT22;4943;52.550;13.462;2023-04-21T07:44:41;14.60;99.90
9808;DHT22;4943;52.550;13.462;2023-04-21T07:47:09;14.60;99.90
9808;DHT22;4943;52.550;13.462;2023-04-21T07:49:39;14.60;99.90
9808;DHT22;4943;52.550;13.462;2023-04-21T07:52:07;14.70;99.90
9808;DHT22;4943;52.550;13.462;2023-04-21T07:54:35;14.70;99.90
9808;DHT22;4943;52.550;13.462;2023-04-21T07:57:03;14.80;99.90
9808;DHT22;4943;52.550;13.462;2023-04-21T07:59:32;14.80;99.90
9808;DHT22;4943;52.550;13.462;2023-04-21T08:02:01;14.90;99.90
9808;DHT22;4943;52.550;13.462;2023-04-21T08:04:29;15.00;99.90
9808;DHT22;4943;52.550;13.462;2023-04-21T08:06:59;15.00;99.90
9808;DHT22;4943;52.550;13.462;2023-04-21T08:09:27;15.10;99.90
9808;DHT22;4943;52.550;13.462;2023-04-21T08:11:56;15.10;99.90
9808;DHT22;4943;52.550;13.462;2023-04-21T08:14:24;15.10;99.90
9808;DHT22;4943;52.550;13.462;2023-04-21T08:16:54;15.10;99.90
9808;DHT22;4943;52.550;13.462;2023-04-21T08:19:23;15.10;99.90
9808;DHT22;4943;52.550;13.462;2023-04-21T08:21:51;15.20;99.90
9808;DHT22;4943;52.550;13.462;2023-04-21T08:24:22;15.20;99.90
9808;DHT22;4943;52.550;13.462;2023-04-21T08:26:50;15.20;99.90
9808;DHT22;4943;52.550;13.462;2023-04-21T08:29:18;15.20;99.90
9808;DHT22;4943;52.550;13.462;2023-04-21T08:31:46;15.30;99.90
9808;DHT22;4943;52.550;13.462;2023-04-21T08:34:14;15.40;99.90
9808;DHT22;4943;52.550;13.462;2023-04-21T08:36:42;15.50;99.90
9808;DHT22;4943;52.550;13.462;2023-04-21T08:39:13;15.60;99.90
9808;DHT22;4943;52.550;13.462;2023-04-21T08:41:43;15.70;99.90
9808;DHT22;4943;52.550;13.462;2023-04-21T08:44:12;15.80;99.90
9808;DHT22;4943;52.550;13.462;2023-04-21T08:46:42;15.80;99.90
9808;DHT22;4943;52.550;13.462;2023-04-21T08:49:12;15.80;99.90
9808;DHT22;4943;52.550;13.462;2023-04-21T08:51:44;15.80;99.90
9808;DHT22;4943;52.550;13.462;2023-04-21T08:54:13;15.90;99.90
9808;DHT22;4943;52.550;13.462;2023-04-21T08:56:42;15.90;99.90
9808;DHT22;4943;52.550;13.462;2023-04-21T08:59:10;16.00;99.90
9808;DHT22;4943;52.550;13.462;2023-04-21T09:02:07;16.00;99.90
9808;DHT22;4943;52.550;13.462;2023-04-21T09:04:37;16.10;99.90
9808;DHT22;4943;52.550;13.462;2023-04-21T09:07:07;16.10;99.90
9808;DHT22;4943;52.550;13.462;2023-04-21T09:09:54;16.20;99.90
9808;DHT22;4943;52.550;13.462;2023-04-21T09:12:24;16.30;99.90
9808;DHT22;4943;52.550;13.462;2023-04-21T09:14:52;16.30;99.90
9808;DHT22;4943;52.550;13.462;2023-04-21T09:17:23;16.30;99.90
9808;DHT22;4943;52.550;13.462;2023-04-21T09:19:54;16.40;99.90
9808;DHT22;4943;52.550;13.462;2023-04-21T09:22:26;16.40;99.90
9808;DHT22;4943;52.550;13.462;2023-04-21T09:24:57;16.40;99.90
9808;DHT22;4943;52.550;13.462;2023-04-21T09:27:27;16.50;99.90
9808;DHT22;4943;52.550;13.462;2023-04-21T09:30:01;16.50;99.90
9808;DHT22;4943;52.550;13.462;2023-04-21T09:32:35;16.60;99.90
9808;DHT22;4943;52.550;13.462;2023-04-21T09:35:05;16.70;99.90
9808;DHT22;4943;52.550;13.462;2023-04-21T09:37:36;16.80;99.90
9808;DHT22;4943;52.550;13.462;2023-04-21T09:40:06;16.80;99.90
9808;DHT22;4943;52.550;13.462;2023-04-21T09:42:35;16.90;99.90
9808;DHT22;4943;52.550;13.462;2023-04-21T09:45:07;17.00;99.90
9808;DHT22;4943;52.550;13.462;2023-04-21T09:47:57;17.00;99.90
9808;DHT22;4943;52.550;13.462;2023-04-21T09:50:27;17.00;99.90
9808;DHT22;4943;52.550;13.462;2023-04-21T09:52:59;17.10;99.90
9808;DHT22;4943;52.550;13.462;2023-04-21T09:55:29;17.10;99.90
9808;DHT22;4943;52.550;13.462;2023-04-21T09:58:01;17.20;99.90
9808;DHT22;4943;52.550;13.462;2023-04-21T10:00:32;17.20;99.90
9808;DHT22;4943;52.550;13.462;2023-04-21T10:03:05;17.30;99.90
9808;DHT22;4943;52.550;13.462;2023-04-21T10:05:37;17.40;99.90
9808;DHT22;4943;52.550;13.462;2023-04-21T10:08:09;17.40;99.90
9808;DHT22;4943;52.550;13.462;2023-04-21T10:10:38;17.40;99.90
9808;DHT22;4943;52.550;13.462;2023-04-21T10:13:12;17.60;99.90
9808;DHT22;4943;52.550;13.462;2023-04-21T10:15:41;17.60;99.90
9808;DHT22;4943;52.550;13.462;2023-04-21T10:18:15;17.70;99.90
9808;DHT22;4943;52.550;13.462;2023-04-21T10:20:54;17.80;99.90
9808;DHT22;4943;52.550;13.462;2023-04-21T10:23:27;17.80;99.90
9808;DHT22;4943;52.550;13.462;2023-04-21T10:26:12;17.90;99.90
9808;DHT22;4943;52.550;13.462;2023-04-21T10:28:44;17.90;99.90
9808;DHT22;4943;52.550;13.462;2023-04-21T10:31:17;18.00;99.90
9808;DHT22;4943;52.550;13.462;2023-04-21T10:34:20;18.00;99.90
9808;DHT22;4943;52.550;13.462;2023-04-21T10:37:07;18.10;99.90
9808;DHT22;4943;52.550;13.462;2023-04-21T10:39:41;18.10;99.90
9808;DHT22;4943;52.550;13.462;2023-04-21T10:42:32;18.10;99.90
9808;DHT22;4943;52.550;13.462;2023-04-21T10:45:11;18.10;99.90
9808;DHT22;4943;52.550;13.462;2023-04-21T10:47:44;18.10;99.90
9808;DHT22;4943;52.550;13.462;2023-04-21T10:50:20;18.10;99.90
9808;DHT22;4943;52.550;13.462;2023-04-21T10:52:54;18.10;99.90
9808;DHT22;4943;52.550;13.462;2023-04-21T10:55:25;18.20;99.90
9808;DHT22;4943;52.550;13.462;2023-04-21T10:57:54;18.20;99.90
9808;DHT22;4943;52.550;13.462;2023-04-21T11:00:27;18.30;99.90
9808;DHT22;4943;52.550;13.462;2023-04-21T11:02:59;18.40;99.90
9808;DHT22;4943;52.550;13.462;2023-04-21T11:05:35;18.40;99.50
9808;DHT22;4943;52.550;13.462;2023-04-21T11:08:11;18.50;99.70
9808;DHT22;4943;52.550;13.462;2023-04-21T11:10:49;18.50;99.80
9808;DHT22;4943;52.550;13.462;2023-04-21T11:13:20;18.60;99.90
9808;DHT22;4943;52.550;13.462;2023-04-21T11:15:59;18.70;99.90
9808;DHT22;4943;52.550;13.462;2023-04-21T11:18:47;18.70;99.10
9808;DHT22;4943;52.550;13.462;2023-04-21T11:21:18;18.70;98.40
9808;DHT22;4943;52.550;13.462;2023-04-21T11:23:49;18.60;98.50
9808;DHT22;4943;52.550;13.462;2023-04-21T11:26:18;18.60;98.70
9808;DHT22;4943;52.550;13.462;2023-04-21T11:29:00;18.70;99.20
9808;DHT22;4943;52.550;13.462;2023-04-21T11:31:30;18.80;98.80
9808;DHT22;4943;52.550;13.462;2023-04-21T11:33:59;18.80;98.10
9808;DHT22;4943;52.550;13.462;2023-04-21T11:36:28;18.80;98.30
9808;DHT22;4943;52.550;13.462;2023-04-21T11:38:57;18.80;97.90
9808;DHT22;4943;52.550;13.462;2023-04-21T11:41:28;18.90;98.20
9808;DHT22;4943;52.550;13.462;2023-04-21T11:43:56;19.00;98.60
9808;DHT22;4943;52.550;13.462;2023-04-21T11:46:26;19.10;98.80
9808;DHT22;4943;52.550;13.462;2023-04-21T11:49:00;19.20;99.00
9808;DHT22;4943;52.550;13.462;2023-04-21T11:51:34;19.20;98.50
9808;DHT22;4943;52.550;13.462;2023-04-21T11:54:05;19.30;98.10
9808;DHT22;4943;52.550;13.462;2023-04-21T11:56:37;19.30;98.10
9808;DHT22;4943;52.550;13.462;2023-04-21T11:59:06;19.30;97.40
9808;DHT22;4943;52.550;13.462;2023-04-21T12:01:39;19.30;97.50
9808;DHT22;4943;52.550;13.462;2023-04-21T12:04:13;19.30;97.00
9808;DHT22;4943;52.550;13.462;2023-04-21T12:06:42;19.30;97.00
9808;DHT22;4943;52.550;13.462;2023-04-21T12:09:16;19.30;96.80
9808;DHT22;4943;52.550;13.462;2023-04-21T12:11:46;19.40;97.10
9808;DHT22;4943;52.550;13.462;2023-04-21T12:14:17;19.40;97.00
9808;DHT22;4943;52.550;13.462;2023-04-21T12:16:47;19.60;97.10
9808;DHT22;4943;52.550;13.462;2023-04-21T12:19:33;19.60;97.30
9808;DHT22;4943;52.550;13.462;2023-04-21T12:22:06;19.70;97.20
9808;DHT22;4943;52.550;13.462;2023-04-21T12:24:34;19.90;97.50
9808;DHT22;4943;52.550;13.462;2023-04-21T12:27:03;19.90;97.00
9808;DHT22;4943;52.550;13.462;2023-04-21T12:29:32;19.90;96.10
9808;DHT22;4943;52.550;13.462;2023-04-21T12:32:01;19.90;95.70
9808;DHT22;4943;52.550;13.462;2023-04-21T12:34:31;19.90;95.50
9808;DHT22;4943;52.550;13.462;2023-04-21T12:36:59;20.00;95.70
9808;DHT22;4943;52.550;13.462;2023-04-21T12:39:27;20.10;95.60
9808;DHT22;4943;52.550;13.462;2023-04-21T12:41:56;20.20;95.90
9808;DHT22;4943;52.550;13.462;2023-04-21T12:44:24;20.20;96.30
9808;DHT22;4943;52.550;13.462;2023-04-21T12:46:52;20.30;96.10
9808;DHT22;4943;52.550;13.462;2023-04-21T12:49:20;20.30;95.20
9808;DHT22;4943;52.550;13.462;2023-04-21T12:51:50;20.20;94.30
9808;DHT22;4943;52.550;13.462;2023-04-21T12:54:18;20.10;94.40
9808;DHT22;4943;52.550;13.462;2023-04-21T12:56:46;20.10;94.30
9808;DHT22;4943;52.550;13.462;2023-04-21T12:59:14;20.00;94.00
9808;DHT22;4943;52.550;13.462;2023-04-21T13:01:42;19.90;94.30
9808;DHT22;4943;52.550;13.462;2023-04-21T13:04:11;19.90;93.90
9808;DHT22;4943;52.550;13.462;2023-04-21T13:06:39;19.90;93.90
9808;DHT22;4943;52.550;13.462;2023-04-21T13:09:08;20.00;94.20
9808;DHT22;4943;52.550;13.462;2023-04-21T13:11:37;20.00;94.50
9808;DHT22;4943;52.550;13.462;2023-04-21T13:14:06;20.10;94.40
9808;DHT22;4943;52.550;13.462;2023-04-21T13:16:34;20.10;94.00
9808;DHT22;4943;52.550;13.462;2023-04-21T13:19:03;20.10;93.00
9808;DHT22;4943;52.550;13.462;2023-04-21T13:21:31;20.10;92.90
9808;DHT22;4943;52.550;13.462;2023-04-21T13:23:59;20.10;93.20
9808;DHT22;4943;52.550;13.462;2023-04-21T13:26:30;20.10;93.40
9808;DHT22;4943;52.550;13.462;2023-04-21T13:29:02;20.10;93.20
9808;DHT22;4943;52.550;13.462;2023-04-21T13:31:30;20.10;92.90
9808;DHT22;4943;52.550;13.462;2023-04-21T13:34:00;20.20;92.80
9808;DHT22;4943;52.550;13.462;2023-04-21T13:36:29;20.20;92.50
9808;DHT22;4943;52.550;13.462;2023-04-21T13:38:58;20.20;92.60
9808;DHT22;4943;52.550;13.462;2023-04-21T13:41:27;20.20;92.50
9808;DHT22;4943;52.550;13.462;2023-04-21T13:43:56;20.20;92.50
9808;DHT22;4943;52.550;13.462;2023-04-21T13:46:24;20.30;92.70
9808;DHT22;4943;52.550;13.462;2023-04-21T13:48:54;20.30;92.90
9808;DHT22;4943;52.550;13.462;2023-04-21T13:51:22;20.40;92.60
9808;DHT22;4943;52.550;13.462;2023-04-21T13:53:50;20.40;92.90
9808;DHT22;4943;52.550;13.462;2023-04-21T13:56:19;20.40;92.30
9808;DHT22;4943;52.550;13.462;2023-04-21T13:58:47;20.40;92.40
9808;DHT22;4943;52.550;13.462;2023-04-21T14:01:16;20.40;92.60
9808;DHT22;4943;52.550;13.462;2023-04-21T14:03:47;20.50;92.70
9808;DHT22;4943;52.550;13.462;2023-04-21T14:06:16;20.50;93.00
9808;DHT22;4943;52.550;13.462;2023-04-21T14:08:44;20.60;93.20
9808;DHT22;4943;52.550;13.462;2023-04-21T14:11:12;20.70;92.80
9808;DHT22;4943;52.550;13.462;2023-04-21T14:13:40;20.70;92.70
9808;DHT22;4943;52.550;13.462;2023-04-21T14:16:30;20.80;92.90
9808;DHT22;4943;52.550;13.462;2023-04-21T14:18:59;20.90;92.50
9808;DHT22;4943;52.550;13.462;2023-04-21T14:21:27;20.90;92.40
9808;DHT22;4943;52.550;13.462;2023-04-21T14:23:55;20.90;92.20
9808;DHT22;4943;52.550;13.462;2023-04-21T14:26:23;20.90;91.80
9808;DHT22;4943;52.550;13.462;2023-04-21T14:28:51;20.90;91.80
9808;DHT22;4943;52.550;13.462;2023-04-21T14:31:19;20.90;91.50
9808;DHT22;4943;52.550;13.462;2023-04-21T14:33:49;20.90;91.60
9808;DHT22;4943;52.550;13.462;2023-04-21T14:40:06;20.90;91.90
9808;DHT22;4943;52.550;13.462;2023-04-21T14:42:34;20.90;91.90
9808;DHT22;4943;52.550;13.462;2023-04-21T14:45:04;21.00;92.00
9808;DHT22;4943;52.550;13.462;2023-04-21T14:47:33;21.00;91.60
9808;DHT22;4943;52.550;13.462;2023-04-21T14:50:04;21.00;91.30
9808;DHT22;4943;52.550;13.462;2023-04-21T14:52:32;21.00;90.90
9808;DHT22;4943;52.550;13.462;2023-04-21T14:55:01;20.90;90.80
9808;DHT22;4943;52.550;13.462;2023-04-21T14:57:30;20.90;91.00
9808;DHT22;4943;52.550;13.462;2023-04-21T14:59:58;20.90;91.00
9808;DHT22;4943;52.550;13.462;2023-04-21T15:02:26;20.90;90.90
9808;DHT22;4943;52.550;13.462;2023-04-21T15:04:55;20.90;90.80
9808;DHT22;4943;52.550;13.462;2023-04-21T15:07:25;20.90;90.70
9808;DHT22;4943;52.550;13.462;2023-04-21T15:09:53;20.90;91.10
9808;DHT22;4943;52.550;13.462;2023-04-21T15:12:21;21.00;91.10
9808;DHT22;4943;52.550;13.462;2023-04-21T15:14:49;21.10;91.00
9808;DHT22;4943;52.550;13.462;2023-04-21T15:17:18;21.10;90.70
9808;DHT22;4943;52.550;13.462;2023-04-21T15:19:46;21.10;90.70
9808;DHT22;4943;52.550;13.462;2023-04-21T15:22:14;21.10;90.90
9808;DHT22;4943;52.550;13.462;2023-04-21T15:24:44;21.10;90.60
9808;DHT22;4943;52.550;13.462;2023-04-21T15:27:14;21.10;90.50
9808;DHT22;4943;52.550;13.462;2023-04-21T15:29:43;21.10;90.10
9808;DHT22;4943;52.550;13.462;2023-04-21T15:32:11;21.10;90.20
9808;DHT22;4943;52.550;13.462;2023-04-21T15:34:40;21.10;90.20
9808;DHT22;4943;52.550;13.462;2023-04-21T15:37:08;21.30;90.60
9808;DHT22;4943;52.550;13.462;2023-04-21T15:39:36;21.40;90.20
9808;DHT22;4943;52.550;13.462;2023-04-21T15:42:06;21.50;90.30
9808;DHT22;4943;52.550;13.462;2023-04-21T15:44:35;21.70;90.70
9808;DHT22;4943;52.550;13.462;2023-04-21T15:47:05;21.80;90.30
9808;DHT22;4943;52.550;13.462;2023-04-21T15:49:33;21.90;90.30
9808;DHT22;4943;52.550;13.462;2023-04-21T15:52:01;22.10;90.40
9808;DHT22;4943;52.550;13.462;2023-04-21T15:54:32;22.20;89.80
9808;DHT22;4943;52.550;13.462;2023-04-21T15:57:01;22.20;88.50
9808;DHT22;4943;52.550;13.462;2023-04-21T15:59:30;22.20;87.30
9808;DHT22;4943;52.550;13.462;2023-04-21T16:01:58;22.10;88.10
9808;DHT22;4943;52.550;13.462;2023-04-21T16:04:27;22.20;88.20